Terminal Aerodrome Forecast
Issued by NWS

Home | Current Version | Previous Version | Graphics & Text | Print | Product List | Glossary On
Versions: 1 2 3 4 5 6 7 8 9 10 11 12 13 14 15 16
000
FTUS43 KBIS 071700
TAFDIK
TAF
KDIK 071737Z 0718/0818 31012G24KT P6SM VCTS SCT025CB BKN150
     FM071900 31018G27KT P6SM SCT080
     FM080200 30008KT P6SM SCT060=

USA.gov is the U.S. government's official web portal to all federal, state and local government web resources and services.